sensor_id;sensor_type;location;lat;lon;timestamp;P1;durP1;ratioP1;P2;durP2;ratioP2
13641;SDS011;6894;52.196;9.904;2023-04-25T00:00:07;9.53;;;4.20;;
13641;SDS011;6894;52.196;9.904;2023-04-25T00:02:35;9.57;;;4.60;;
13641;SDS011;6894;52.196;9.904;2023-04-25T00:05:02;8.13;;;4.03;;
13641;SDS011;6894;52.196;9.904;2023-04-25T00:07:31;10.20;;;4.50;;
13641;SDS011;6894;52.196;9.904;2023-04-25T00:09:58;8.93;;;3.70;;
13641;SDS011;6894;52.196;9.904;2023-04-25T00:12:25;7.47;;;3.93;;
13641;SDS011;6894;52.196;9.904;2023-04-25T00:14:53;9.47;;;3.77;;
13641;SDS011;6894;52.196;9.904;2023-04-25T00:17:21;8.70;;;4.10;;
13641;SDS011;6894;52.196;9.904;2023-04-25T00:19:49;10.37;;;4.13;;
13641;SDS011;6894;52.196;9.904;2023-04-25T00:22:16;11.33;;;3.87;;
13641;SDS011;6894;52.196;9.904;2023-04-25T00:24:44;13.80;;;5.30;;
13641;SDS011;6894;52.196;9.904;2023-04-25T00:27:11;10.77;;;4.87;;
13641;SDS011;6894;52.196;9.904;2023-04-25T00:29:37;10.27;;;4.83;;
13641;SDS011;6894;52.196;9.904;2023-04-25T00:32:04;11.87;;;4.47;;
13641;SDS011;6894;52.196;9.904;2023-04-25T00:34:31;8.63;;;4.97;;
13641;SDS011;6894;52.196;9.904;2023-04-25T00:36:58;8.47;;;4.90;;
13641;SDS011;6894;52.196;9.904;2023-04-25T00:39:26;10.23;;;4.50;;
13641;SDS011;6894;52.196;9.904;2023-04-25T00:41:55;8.70;;;4.73;;
13641;SDS011;6894;52.196;9.904;2023-04-25T00:44:22;10.67;;;5.13;;
13641;SDS011;6894;52.196;9.904;2023-04-25T00:46:51;11.40;;;4.87;;
13641;SDS011;6894;52.196;9.904;2023-04-25T00:49:19;12.43;;;6.07;;
13641;SDS011;6894;52.196;9.904;2023-04-25T00:51:46;10.00;;;5.17;;
13641;SDS011;6894;52.196;9.904;2023-04-25T00:54:13;10.93;;;5.10;;
13641;SDS011;6894;52.196;9.904;2023-04-25T00:56:40;13.40;;;5.20;;
13641;SDS011;6894;52.196;9.904;2023-04-25T00:59:09;11.50;;;5.03;;
13641;SDS011;6894;52.196;9.904;2023-04-25T01:01:36;13.40;;;6.50;;
13641;SDS011;6894;52.196;9.904;2023-04-25T01:04:04;9.13;;;5.70;;
13641;SDS011;6894;52.196;9.904;2023-04-25T01:06:31;16.23;;;5.93;;
13641;SDS011;6894;52.196;9.904;2023-04-25T01:08:58;9.90;;;5.60;;
13641;SDS011;6894;52.196;9.904;2023-04-25T01:11:25;10.73;;;6.70;;
13641;SDS011;6894;52.196;9.904;2023-04-25T01:13:52;11.00;;;6.23;;
13641;SDS011;6894;52.196;9.904;2023-04-25T01:16:20;14.33;;;5.53;;
13641;SDS011;6894;52.196;9.904;2023-04-25T01:18:48;13.50;;;6.10;;
13641;SDS011;6894;52.196;9.904;2023-04-25T01:21:17;10.03;;;5.97;;
13641;SDS011;6894;52.196;9.904;2023-04-25T01:23:44;11.53;;;6.27;;
13641;SDS011;6894;52.196;9.904;2023-04-25T01:26:11;12.27;;;6.30;;
13641;SDS011;6894;52.196;9.904;2023-04-25T01:28:39;14.07;;;6.60;;
13641;SDS011;6894;52.196;9.904;2023-04-25T01:31:06;11.80;;;6.17;;
13641;SDS011;6894;52.196;9.904;2023-04-25T01:33:33;15.67;;;8.33;;
13641;SDS011;6894;52.196;9.904;2023-04-25T01:36:00;13.67;;;7.37;;
13641;SDS011;6894;52.196;9.904;2023-04-25T01:38:28;12.23;;;7.17;;
13641;SDS011;6894;52.196;9.904;2023-04-25T01:40:56;13.40;;;6.43;;
13641;SDS011;6894;52.196;9.904;2023-04-25T01:43:23;12.57;;;6.33;;
13641;SDS011;6894;52.196;9.904;2023-04-25T01:45:51;11.00;;;6.57;;
13641;SDS011;6894;52.196;9.904;2023-04-25T01:48:18;8.70;;;6.33;;
13641;SDS011;6894;52.196;9.904;2023-04-25T01:50:45;14.90;;;7.43;;
13641;SDS011;6894;52.196;9.904;2023-04-25T01:53:12;10.53;;;7.23;;
13641;SDS011;6894;52.196;9.904;2023-04-25T01:55:41;11.17;;;7.43;;
13641;SDS011;6894;52.196;9.904;2023-04-25T01:58:08;15.70;;;6.63;;
13641;SDS011;6894;52.196;9.904;2023-04-25T02:00:38;16.87;;;7.67;;
13641;SDS011;6894;52.196;9.904;2023-04-25T02:03:06;11.90;;;7.17;;
13641;SDS011;6894;52.196;9.904;2023-04-25T02:05:36;14.97;;;7.60;;
13641;SDS011;6894;52.196;9.904;2023-04-25T02:08:04;14.13;;;7.60;;
13641;SDS011;6894;52.196;9.904;2023-04-25T02:10:31;20.07;;;7.47;;
13641;SDS011;6894;52.196;9.904;2023-04-25T02:13:00;14.77;;;7.83;;
13641;SDS011;6894;52.196;9.904;2023-04-25T02:15:27;14.43;;;7.80;;
13641;SDS011;6894;52.196;9.904;2023-04-25T02:17:53;12.07;;;7.50;;
13641;SDS011;6894;52.196;9.904;2023-04-25T02:20:21;10.87;;;7.57;;
13641;SDS011;6894;52.196;9.904;2023-04-25T02:22:48;11.67;;;7.57;;
13641;SDS011;6894;52.196;9.904;2023-04-25T02:25:16;14.23;;;7.47;;
13641;SDS011;6894;52.196;9.904;2023-04-25T02:27:44;12.53;;;7.10;;
13641;SDS011;6894;52.196;9.904;2023-04-25T02:30:13;20.43;;;7.73;;
13641;SDS011;6894;52.196;9.904;2023-04-25T02:32:40;20.63;;;7.30;;
13641;SDS011;6894;52.196;9.904;2023-04-25T02:35:07;13.70;;;8.33;;
13641;SDS011;6894;52.196;9.904;2023-04-25T02:37:35;14.80;;;6.97;;
13641;SDS011;6894;52.196;9.904;2023-04-25T02:40:03;13.87;;;7.93;;
13641;SDS011;6894;52.196;9.904;2023-04-25T02:42:30;12.87;;;6.50;;
13641;SDS011;6894;52.196;9.904;2023-04-25T02:44:57;12.20;;;7.47;;
13641;SDS011;6894;52.196;9.904;2023-04-25T02:47:25;11.80;;;6.93;;
13641;SDS011;6894;52.196;9.904;2023-04-25T02:49:52;12.97;;;6.47;;
13641;SDS011;6894;52.196;9.904;2023-04-25T02:52:19;14.23;;;7.30;;
13641;SDS011;6894;52.196;9.904;2023-04-25T02:54:46;11.50;;;7.27;;
13641;SDS011;6894;52.196;9.904;2023-04-25T02:57:12;10.13;;;6.40;;
13641;SDS011;6894;52.196;9.904;2023-04-25T02:59:39;11.43;;;6.70;;
13641;SDS011;6894;52.196;9.904;2023-04-25T03:02:06;8.83;;;5.87;;
13641;SDS011;6894;52.196;9.904;2023-04-25T03:04:34;9.30;;;6.47;;
13641;SDS011;6894;52.196;9.904;2023-04-25T03:07:01;10.03;;;6.03;;
13641;SDS011;6894;52.196;9.904;2023-04-25T03:09:28;12.07;;;5.00;;
13641;SDS011;6894;52.196;9.904;2023-04-25T03:11:55;19.23;;;5.77;;
13641;SDS011;6894;52.196;9.904;2023-04-25T03:14:21;15.93;;;5.27;;
13641;SDS011;6894;52.196;9.904;2023-04-25T03:16:48;9.87;;;4.13;;
13641;SDS011;6894;52.196;9.904;2023-04-25T03:19:15;9.30;;;4.30;;
13641;SDS011;6894;52.196;9.904;2023-04-25T03:21:43;12.43;;;4.90;;
13641;SDS011;6894;52.196;9.904;2023-04-25T03:24:10;12.30;;;4.37;;
13641;SDS011;6894;52.196;9.904;2023-04-25T03:26:37;9.07;;;4.63;;
13641;SDS011;6894;52.196;9.904;2023-04-25T03:29:04;13.40;;;3.93;;
13641;SDS011;6894;52.196;9.904;2023-04-25T03:31:31;11.93;;;3.67;;
13641;SDS011;6894;52.196;9.904;2023-04-25T03:33:57;11.97;;;4.90;;
13641;SDS011;6894;52.196;9.904;2023-04-25T03:36:24;12.30;;;4.50;;
13641;SDS011;6894;52.196;9.904;2023-04-25T03:38:52;10.03;;;3.50;;
13641;SDS011;6894;52.196;9.904;2023-04-25T03:41:19;11.40;;;3.60;;
13641;SDS011;6894;52.196;9.904;2023-04-25T03:43:46;16.30;;;4.13;;
13641;SDS011;6894;52.196;9.904;2023-04-25T03:46:13;11.73;;;3.93;;
13641;SDS011;6894;52.196;9.904;2023-04-25T03:48:39;15.67;;;4.27;;
13641;SDS011;6894;52.196;9.904;2023-04-25T03:51:06;11.63;;;5.00;;
13641;SDS011;6894;52.196;9.904;2023-04-25T03:53:33;15.57;;;4.73;;
13641;SDS011;6894;52.196;9.904;2023-04-25T03:56:01;12.03;;;4.73;;
13641;SDS011;6894;52.196;9.904;2023-04-25T03:58:28;13.10;;;5.23;;
13641;SDS011;6894;52.196;9.904;2023-04-25T04:00:54;8.20;;;3.83;;
13641;SDS011;6894;52.196;9.904;2023-04-25T04:03:21;13.33;;;4.30;;
13641;SDS011;6894;52.196;9.904;2023-04-25T04:05:48;15.87;;;4.33;;
13641;SDS011;6894;52.196;9.904;2023-04-25T04:08:15;12.23;;;5.10;;
13641;SDS011;6894;52.196;9.904;2023-04-25T04:10:42;12.83;;;3.80;;
13641;SDS011;6894;52.196;9.904;2023-04-25T04:13:10;12.63;;;4.17;;
13641;SDS011;6894;52.196;9.904;2023-04-25T04:15:37;11.33;;;4.50;;
13641;SDS011;6894;52.196;9.904;2023-04-25T04:18:03;12.87;;;4.20;;
13641;SDS011;6894;52.196;9.904;2023-04-25T04:20:31;20.23;;;4.43;;
13641;SDS011;6894;52.196;9.904;2023-04-25T04:22:58;10.33;;;3.60;;
13641;SDS011;6894;52.196;9.904;2023-04-25T04:25:24;14.17;;;5.07;;
13641;SDS011;6894;52.196;9.904;2023-04-25T04:27:51;13.67;;;3.93;;
13641;SDS011;6894;52.196;9.904;2023-04-25T04:30:21;20.63;;;4.80;;
13641;SDS011;6894;52.196;9.904;2023-04-25T04:32:49;17.70;;;5.40;;
13641;SDS011;6894;52.196;9.904;2023-04-25T04:35:16;18.33;;;4.30;;
13641;SDS011;6894;52.196;9.904;2023-04-25T04:37:43;19.40;;;4.10;;
13641;SDS011;6894;52.196;9.904;2023-04-25T04:40:10;14.03;;;4.70;;
13641;SDS011;6894;52.196;9.904;2023-04-25T04:42:40;11.93;;;3.80;;
13641;SDS011;6894;52.196;9.904;2023-04-25T04:45:07;10.57;;;5.13;;
13641;SDS011;6894;52.196;9.904;2023-04-25T04:47:36;12.60;;;4.17;;
13641;SDS011;6894;52.196;9.904;2023-04-25T04:50:05;13.10;;;3.53;;
13641;SDS011;6894;52.196;9.904;2023-04-25T04:52:33;17.97;;;4.37;;
13641;SDS011;6894;52.196;9.904;2023-04-25T04:55:00;19.93;;;4.47;;
13641;SDS011;6894;52.196;9.904;2023-04-25T04:57:27;14.83;;;4.57;;
13641;SDS011;6894;52.196;9.904;2023-04-25T04:59:54;12.23;;;5.67;;
13641;SDS011;6894;52.196;9.904;2023-04-25T05:02:21;14.77;;;4.63;;
13641;SDS011;6894;52.196;9.904;2023-04-25T05:04:49;13.97;;;3.93;;
13641;SDS011;6894;52.196;9.904;2023-04-25T05:07:16;12.43;;;3.77;;
13641;SDS011;6894;52.196;9.904;2023-04-25T05:09:43;14.10;;;4.00;;
13641;SDS011;6894;52.196;9.904;2023-04-25T05:12:10;17.00;;;3.90;;
13641;SDS011;6894;52.196;9.904;2023-04-25T05:14:37;19.93;;;4.87;;
13641;SDS011;6894;52.196;9.904;2023-04-25T05:17:03;16.17;;;5.17;;
13641;SDS011;6894;52.196;9.904;2023-04-25T05:19:33;16.90;;;4.67;;
13641;SDS011;6894;52.196;9.904;2023-04-25T05:22:01;23.90;;;4.33;;
13641;SDS011;6894;52.196;9.904;2023-04-25T05:24:28;19.03;;;4.33;;
13641;SDS011;6894;52.196;9.904;2023-04-25T05:26:55;12.63;;;4.07;;
13641;SDS011;6894;52.196;9.904;2023-04-25T05:29:22;16.33;;;4.33;;
13641;SDS011;6894;52.196;9.904;2023-04-25T05:31:49;12.67;;;4.10;;
13641;SDS011;6894;52.196;9.904;2023-04-25T05:34:16;15.97;;;4.57;;
13641;SDS011;6894;52.196;9.904;2023-04-25T05:36:42;14.37;;;4.03;;
13641;SDS011;6894;52.196;9.904;2023-04-25T05:39:10;22.13;;;4.07;;
13641;SDS011;6894;52.196;9.904;2023-04-25T05:41:37;12.93;;;3.80;;
13641;SDS011;6894;52.196;9.904;2023-04-25T05:44:04;17.37;;;5.73;;
13641;SDS011;6894;52.196;9.904;2023-04-25T05:46:31;16.00;;;4.13;;
13641;SDS011;6894;52.196;9.904;2023-04-25T05:48:58;12.47;;;4.43;;
13641;SDS011;6894;52.196;9.904;2023-04-25T05:51:25;12.00;;;3.50;;
13641;SDS011;6894;52.196;9.904;2023-04-25T05:53:52;11.87;;;3.40;;
13641;SDS011;6894;52.196;9.904;2023-04-25T05:56:20;14.20;;;4.23;;
13641;SDS011;6894;52.196;9.904;2023-04-25T05:58:47;14.50;;;4.07;;
13641;SDS011;6894;52.196;9.904;2023-04-25T06:01:14;19.67;;;4.27;;
13641;SDS011;6894;52.196;9.904;2023-04-25T06:03:41;10.13;;;3.80;;
13641;SDS011;6894;52.196;9.904;2023-04-25T06:06:08;11.90;;;3.57;;
13641;SDS011;6894;52.196;9.904;2023-04-25T06:08:35;13.87;;;3.67;;
13641;SDS011;6894;52.196;9.904;2023-04-25T06:11:02;15.73;;;4.77;;
13641;SDS011;6894;52.196;9.904;2023-04-25T06:13:31;16.30;;;4.20;;
13641;SDS011;6894;52.196;9.904;2023-04-25T06:15:57;20.13;;;3.80;;
13641;SDS011;6894;52.196;9.904;2023-04-25T06:18:25;16.63;;;4.00;;
13641;SDS011;6894;52.196;9.904;2023-04-25T06:20:52;15.60;;;3.07;;
13641;SDS011;6894;52.196;9.904;2023-04-25T06:23:19;14.87;;;3.37;;
13641;SDS011;6894;52.196;9.904;2023-04-25T06:25:46;15.10;;;3.23;;
13641;SDS011;6894;52.196;9.904;2023-04-25T06:28:12;16.77;;;3.20;;
13641;SDS011;6894;52.196;9.904;2023-04-25T06:30:40;13.07;;;2.40;;
13641;SDS011;6894;52.196;9.904;2023-04-25T06:33:07;21.00;;;3.60;;
13641;SDS011;6894;52.196;9.904;2023-04-25T06:35:34;14.37;;;4.10;;
13641;SDS011;6894;52.196;9.904;2023-04-25T06:38:01;8.50;;;2.53;;
13641;SDS011;6894;52.196;9.904;2023-04-25T06:40:28;13.50;;;3.43;;
13641;SDS011;6894;52.196;9.904;2023-04-25T06:42:54;12.07;;;2.80;;
13641;SDS011;6894;52.196;9.904;2023-04-25T06:45:21;10.47;;;2.83;;
13641;SDS011;6894;52.196;9.904;2023-04-25T06:47:49;14.27;;;2.83;;
13641;SDS011;6894;52.196;9.904;2023-04-25T06:50:16;8.63;;;3.03;;
13641;SDS011;6894;52.196;9.904;2023-04-25T06:52:43;15.23;;;3.37;;
13641;SDS011;6894;52.196;9.904;2023-04-25T06:55:10;13.67;;;3.93;;
13641;SDS011;6894;52.196;9.904;2023-04-25T06:57:36;10.30;;;2.33;;
13641;SDS011;6894;52.196;9.904;2023-04-25T07:00:04;11.90;;;2.87;;
13641;SDS011;6894;52.196;9.904;2023-04-25T07:02:34;15.57;;;2.90;;
13641;SDS011;6894;52.196;9.904;2023-04-25T07:05:02;10.07;;;2.90;;
13641;SDS011;6894;52.196;9.904;2023-04-25T07:07:29;9.07;;;2.67;;
13641;SDS011;6894;52.196;9.904;2023-04-25T07:09:56;11.67;;;2.90;;
13641;SDS011;6894;52.196;9.904;2023-04-25T07:12:23;9.37;;;2.00;;
13641;SDS011;6894;52.196;9.904;2023-04-25T07:14:49;9.53;;;2.13;;
13641;SDS011;6894;52.196;9.904;2023-04-25T07:17:16;9.67;;;2.33;;
13641;SDS011;6894;52.196;9.904;2023-04-25T07:19:43;9.77;;;2.17;;
13641;SDS011;6894;52.196;9.904;2023-04-25T07:22:11;11.77;;;3.00;;
13641;SDS011;6894;52.196;9.904;2023-04-25T07:24:38;8.73;;;2.67;;
13641;SDS011;6894;52.196;9.904;2023-04-25T07:27:05;8.30;;;2.23;;
13641;SDS011;6894;52.196;9.904;2023-04-25T07:29:32;6.83;;;2.13;;
13641;SDS011;6894;52.196;9.904;2023-04-25T07:32:02;11.50;;;3.33;;
13641;SDS011;6894;52.196;9.904;2023-04-25T07:34:29;12.63;;;2.30;;
13641;SDS011;6894;52.196;9.904;2023-04-25T07:36:57;10.47;;;2.10;;
13641;SDS011;6894;52.196;9.904;2023-04-25T07:39:25;15.33;;;3.13;;
13641;SDS011;6894;52.196;9.904;2023-04-25T07:41:52;11.50;;;2.50;;
13641;SDS011;6894;52.196;9.904;2023-04-25T07:44:19;9.47;;;2.17;;
13641;SDS011;6894;52.196;9.904;2023-04-25T07:46:46;8.00;;;1.87;;
13641;SDS011;6894;52.196;9.904;2023-04-25T07:49:13;10.17;;;2.63;;
13641;SDS011;6894;52.196;9.904;2023-04-25T07:51:39;9.77;;;2.10;;
13641;SDS011;6894;52.196;9.904;2023-04-25T07:54:08;9.80;;;2.37;;
13641;SDS011;6894;52.196;9.904;2023-04-25T07:56:36;9.47;;;2.27;;
13641;SDS011;6894;52.196;9.904;2023-04-25T07:59:03;14.57;;;3.50;;
13641;SDS011;6894;52.196;9.904;2023-04-25T08:01:30;7.37;;;2.50;;
13641;SDS011;6894;52.196;9.904;2023-04-25T08:03:57;9.47;;;2.50;;
13641;SDS011;6894;52.196;9.904;2023-04-25T08:06:23;9.17;;;1.87;;
13641;SDS011;6894;52.196;9.904;2023-04-25T08:08:50;11.03;;;2.47;;
13641;SDS011;6894;52.196;9.904;2023-04-25T08:11:17;7.67;;;2.20;;
13641;SDS011;6894;52.196;9.904;2023-04-25T08:13:45;7.97;;;2.40;;
13641;SDS011;6894;52.196;9.904;2023-04-25T08:16:12;10.87;;;2.20;;
13641;SDS011;6894;52.196;9.904;2023-04-25T08:18:39;6.50;;;2.00;;
13641;SDS011;6894;52.196;9.904;2023-04-25T08:21:06;6.27;;;1.80;;
13641;SDS011;6894;52.196;9.904;2023-04-25T08:23:33;8.00;;;2.23;;
13641;SDS011;6894;52.196;9.904;2023-04-25T08:26:00;7.37;;;2.07;;
13641;SDS011;6894;52.196;9.904;2023-04-25T08:28:27;8.13;;;2.23;;
13641;SDS011;6894;52.196;9.904;2023-04-25T08:30:56;5.63;;;2.10;;
13641;SDS011;6894;52.196;9.904;2023-04-25T08:33:22;6.30;;;2.07;;
13641;SDS011;6894;52.196;9.904;2023-04-25T08:35:50;6.37;;;1.43;;
13641;SDS011;6894;52.196;9.904;2023-04-25T08:38:16;6.40;;;3.03;;
13641;SDS011;6894;52.196;9.904;2023-04-25T08:40:44;5.80;;;2.00;;
13641;SDS011;6894;52.196;9.904;2023-04-25T08:43:17;9.97;;;3.00;;
13641;SDS011;6894;52.196;9.904;2023-04-25T08:45:45;6.37;;;1.77;;
13641;SDS011;6894;52.196;9.904;2023-04-25T08:48:14;8.37;;;1.90;;
13641;SDS011;6894;52.196;9.904;2023-04-25T08:50:44;5.83;;;1.73;;
13641;SDS011;6894;52.196;9.904;2023-04-25T08:53:15;6.63;;;1.90;;
13641;SDS011;6894;52.196;9.904;2023-04-25T08:55:45;3.27;;;1.37;;
13641;SDS011;6894;52.196;9.904;2023-04-25T08:58:12;6.70;;;1.97;;
13641;SDS011;6894;52.196;9.904;2023-04-25T09:00:39;5.07;;;1.50;;
13641;SDS011;6894;52.196;9.904;2023-04-25T09:03:06;9.77;;;2.40;;
13641;SDS011;6894;52.196;9.904;2023-04-25T09:05:35;7.10;;;1.83;;
13641;SDS011;6894;52.196;9.904;2023-04-25T09:08:02;3.80;;;1.60;;
13641;SDS011;6894;52.196;9.904;2023-04-25T09:10:29;4.43;;;1.37;;
13641;SDS011;6894;52.196;9.904;2023-04-25T09:13:02;5.03;;;1.73;;
13641;SDS011;6894;52.196;9.904;2023-04-25T09:15:30;7.03;;;1.60;;
13641;SDS011;6894;52.196;9.904;2023-04-25T09:17:58;6.20;;;1.90;;
13641;SDS011;6894;52.196;9.904;2023-04-25T09:20:25;3.73;;;1.63;;
13641;SDS011;6894;52.196;9.904;2023-04-25T09:23:02;8.13;;;1.60;;
13641;SDS011;6894;52.196;9.904;2023-04-25T09:25:33;7.13;;;1.90;;
13641;SDS011;6894;52.196;9.904;2023-04-25T09:28:03;4.00;;;1.40;;
13641;SDS011;6894;52.196;9.904;2023-04-25T09:30:32;8.30;;;1.70;;
13641;SDS011;6894;52.196;9.904;2023-04-25T09:33:03;4.13;;;1.50;;
13641;SDS011;6894;52.196;9.904;2023-04-25T09:35:35;7.50;;;2.00;;
13641;SDS011;6894;52.196;9.904;2023-04-25T09:38:08;3.20;;;1.53;;
13641;SDS011;6894;52.196;9.904;2023-04-25T09:40:38;4.97;;;2.03;;
13641;SDS011;6894;52.196;9.904;2023-04-25T09:43:08;6.07;;;2.77;;
13641;SDS011;6894;52.196;9.904;2023-04-25T09:45:40;4.33;;;1.63;;
13641;SDS011;6894;52.196;9.904;2023-04-25T09:48:10;8.90;;;1.80;;
13641;SDS011;6894;52.196;9.904;2023-04-25T09:50:37;3.83;;;1.27;;
13641;SDS011;6894;52.196;9.904;2023-04-25T09:53:05;5.93;;;1.13;;
13641;SDS011;6894;52.196;9.904;2023-04-25T09:55:33;5.07;;;1.20;;
13641;SDS011;6894;52.196;9.904;2023-04-25T09:58:02;4.17;;;1.20;;
13641;SDS011;6894;52.196;9.904;2023-04-25T10:00:32;3.40;;;1.13;;
13641;SDS011;6894;52.196;9.904;2023-04-25T10:03:00;5.97;;;1.17;;
13641;SDS011;6894;52.196;9.904;2023-04-25T10:05:29;3.47;;;1.10;;
13641;SDS011;6894;52.196;9.904;2023-04-25T10:07:58;4.47;;;1.00;;
13641;SDS011;6894;52.196;9.904;2023-04-25T10:10:28;5.03;;;1.17;;
13641;SDS011;6894;52.196;9.904;2023-04-25T10:13:02;5.73;;;1.10;;
13641;SDS011;6894;52.196;9.904;2023-04-25T10:15:34;3.50;;;1.20;;
13641;SDS011;6894;52.196;9.904;2023-04-25T10:18:02;5.63;;;1.40;;
13641;SDS011;6894;52.196;9.904;2023-04-25T10:20:29;2.33;;;1.23;;
13641;SDS011;6894;52.196;9.904;2023-04-25T10:22:57;3.33;;;1.13;;
13641;SDS011;6894;52.196;9.904;2023-04-25T10:25:30;3.33;;;1.23;;
13641;SDS011;6894;52.196;9.904;2023-04-25T10:27:59;4.23;;;1.20;;
13641;SDS011;6894;52.196;9.904;2023-04-25T10:30:30;5.83;;;1.13;;
13641;SDS011;6894;52.196;9.904;2023-04-25T10:32:58;4.97;;;1.17;;
13641;SDS011;6894;52.196;9.904;2023-04-25T10:35:26;3.53;;;1.10;;
13641;SDS011;6894;52.196;9.904;2023-04-25T10:37:58;5.67;;;2.30;;
13641;SDS011;6894;52.196;9.904;2023-04-25T10:40:26;3.33;;;1.30;;
13641;SDS011;6894;52.196;9.904;2023-04-25T10:42:53;4.70;;;1.07;;
13641;SDS011;6894;52.196;9.904;2023-04-25T10:45:21;9.17;;;3.87;;
13641;SDS011;6894;52.196;9.904;2023-04-25T10:47:49;2.53;;;1.57;;
13641;SDS011;6894;52.196;9.904;2023-04-25T10:50:16;4.27;;;1.43;;
13641;SDS011;6894;52.196;9.904;2023-04-25T10:52:43;3.60;;;1.60;;
13641;SDS011;6894;52.196;9.904;2023-04-25T10:55:10;4.17;;;1.60;;
13641;SDS011;6894;52.196;9.904;2023-04-25T10:57:38;4.93;;;1.70;;
13641;SDS011;6894;52.196;9.904;2023-04-25T11:00:08;2.13;;;1.00;;
13641;SDS011;6894;52.196;9.904;2023-04-25T11:02:44;6.70;;;1.47;;
13641;SDS011;6894;52.196;9.904;2023-04-25T11:05:20;4.67;;;1.47;;
13641;SDS011;6894;52.196;9.904;2023-04-25T11:07:52;5.50;;;1.57;;
13641;SDS011;6894;52.196;9.904;2023-04-25T11:10:24;4.30;;;1.47;;
13641;SDS011;6894;52.196;9.904;2023-04-25T11:12:51;5.17;;;1.60;;
13641;SDS011;6894;52.196;9.904;2023-04-25T11:15:18;4.77;;;1.50;;
13641;SDS011;6894;52.196;9.904;2023-04-25T11:17:45;4.87;;;1.60;;
13641;SDS011;6894;52.196;9.904;2023-04-25T11:20:12;7.03;;;2.17;;
13641;SDS011;6894;52.196;9.904;2023-04-25T11:22:41;6.13;;;1.63;;
13641;SDS011;6894;52.196;9.904;2023-04-25T11:25:10;4.53;;;1.70;;
13641;SDS011;6894;52.196;9.904;2023-04-25T11:27:39;7.00;;;1.70;;
13641;SDS011;6894;52.196;9.904;2023-04-25T11:30:15;4.27;;;1.10;;
13641;SDS011;6894;52.196;9.904;2023-04-25T11:32:42;5.00;;;1.70;;
13641;SDS011;6894;52.196;9.904;2023-04-25T11:35:09;5.67;;;2.90;;
13641;SDS011;6894;52.196;9.904;2023-04-25T11:37:36;6.20;;;2.40;;
13641;SDS011;6894;52.196;9.904;2023-04-25T11:40:07;5.13;;;2.10;;
13641;SDS011;6894;52.196;9.904;2023-04-25T11:42:36;8.50;;;1.80;;
13641;SDS011;6894;52.196;9.904;2023-04-25T11:45:04;5.40;;;1.47;;
13641;SDS011;6894;52.196;9.904;2023-04-25T11:47:32;5.20;;;1.50;;
13641;SDS011;6894;52.196;9.904;2023-04-25T11:50:00;4.57;;;1.43;;
13641;SDS011;6894;52.196;9.904;2023-04-25T11:52:35;6.50;;;1.70;;
13641;SDS011;6894;52.196;9.904;2023-04-25T11:55:03;4.30;;;2.60;;
13641;SDS011;6894;52.196;9.904;2023-04-25T11:57:33;5.53;;;1.47;;
13641;SDS011;6894;52.196;9.904;2023-04-25T12:00:10;5.90;;;1.57;;
13641;SDS011;6894;52.196;9.904;2023-04-25T12:02:40;6.93;;;2.47;;
13641;SDS011;6894;52.196;9.904;2023-04-25T12:05:08;7.50;;;2.83;;
13641;SDS011;6894;52.196;9.904;2023-04-25T12:07:35;7.47;;;2.50;;
13641;SDS011;6894;52.196;9.904;2023-04-25T12:10:07;15.43;;;9.50;;
13641;SDS011;6894;52.196;9.904;2023-04-25T12:12:36;4.80;;;2.00;;
13641;SDS011;6894;52.196;9.904;2023-04-25T12:15:10;5.73;;;2.40;;
13641;SDS011;6894;52.196;9.904;2023-04-25T12:17:40;4.33;;;2.00;;
13641;SDS011;6894;52.196;9.904;2023-04-25T12:20:08;4.10;;;1.53;;
13641;SDS011;6894;52.196;9.904;2023-04-25T12:22:36;3.37;;;1.40;;
13641;SDS011;6894;52.196;9.904;2023-04-25T12:25:03;4.80;;;2.10;;
13641;SDS011;6894;52.196;9.904;2023-04-25T12:27:32;6.37;;;1.70;;
13641;SDS011;6894;52.196;9.904;2023-04-25T12:29:58;5.30;;;1.80;;
13641;SDS011;6894;52.196;9.904;2023-04-25T12:32:26;5.93;;;1.40;;
13641;SDS011;6894;52.196;9.904;2023-04-25T12:34:53;4.70;;;1.30;;
13641;SDS011;6894;52.196;9.904;2023-04-25T12:37:20;6.70;;;1.90;;
13641;SDS011;6894;52.196;9.904;2023-04-25T12:39:47;5.93;;;1.20;;
13641;SDS011;6894;52.196;9.904;2023-04-25T12:42:14;6.03;;;1.30;;
13641;SDS011;6894;52.196;9.904;2023-04-25T12:44:42;2.97;;;1.20;;
13641;SDS011;6894;52.196;9.904;2023-04-25T12:47:09;3.17;;;1.20;;
13641;SDS011;6894;52.196;9.904;2023-04-25T12:49:36;3.80;;;1.27;;
13641;SDS011;6894;52.196;9.904;2023-04-25T12:52:03;1.73;;;0.67;;
13641;SDS011;6894;52.196;9.904;2023-04-25T12:54:29;2.33;;;0.87;;
13641;SDS011;6894;52.196;9.904;2023-04-25T12:56:56;4.33;;;1.20;;
13641;SDS011;6894;52.196;9.904;2023-04-25T12:59:24;1.20;;;0.63;;
13641;SDS011;6894;52.196;9.904;2023-04-25T13:01:52;1.80;;;0.67;;
13641;SDS011;6894;52.196;9.904;2023-04-25T13:04:18;2.30;;;0.80;;
13641;SDS011;6894;52.196;9.904;2023-04-25T13:06:46;4.13;;;0.87;;
13641;SDS011;6894;52.196;9.904;2023-04-25T13:09:13;3.10;;;0.67;;
13641;SDS011;6894;52.196;9.904;2023-04-25T13:11:40;2.10;;;0.70;;
13641;SDS011;6894;52.196;9.904;2023-04-25T13:14:07;3.00;;;0.93;;
13641;SDS011;6894;52.196;9.904;2023-04-25T13:16:34;2.83;;;0.80;;
13641;SDS011;6894;52.196;9.904;2023-04-25T13:19:02;3.33;;;1.10;;
13641;SDS011;6894;52.196;9.904;2023-04-25T13:21:29;3.30;;;1.10;;
13641;SDS011;6894;52.196;9.904;2023-04-25T13:23:56;2.40;;;2.10;;
13641;SDS011;6894;52.196;9.904;2023-04-25T13:26:23;5.67;;;1.30;;
13641;SDS011;6894;52.196;9.904;2023-04-25T13:28:51;2.97;;;1.20;;
13641;SDS011;6894;52.196;9.904;2023-04-25T13:31:18;5.57;;;1.33;;
13641;SDS011;6894;52.196;9.904;2023-04-25T13:33:45;3.33;;;2.20;;
13641;SDS011;6894;52.196;9.904;2023-04-25T13:36:14;4.77;;;4.10;;
13641;SDS011;6894;52.196;9.904;2023-04-25T13:38:40;4.03;;;1.67;;
13641;SDS011;6894;52.196;9.904;2023-04-25T13:41:08;2.63;;;2.23;;
13641;SDS011;6894;52.196;9.904;2023-04-25T13:43:36;4.03;;;2.83;;
13641;SDS011;6894;52.196;9.904;2023-04-25T13:46:03;4.03;;;1.87;;
13641;SDS011;6894;52.196;9.904;2023-04-25T13:48:29;5.87;;;2.83;;
13641;SDS011;6894;52.196;9.904;2023-04-25T13:50:56;5.03;;;1.60;;
13641;SDS011;6894;52.196;9.904;2023-04-25T13:53:25;18.50;;;11.27;;
13641;SDS011;6894;52.196;9.904;2023-04-25T13:55:51;8.17;;;5.13;;
13641;SDS011;6894;52.196;9.904;2023-04-25T13:58:18;3.97;;;2.57;;
13641;SDS011;6894;52.196;9.904;2023-04-25T14:00:46;10.03;;;9.23;;
13641;SDS011;6894;52.196;9.904;2023-04-25T14:03:12;6.97;;;4.60;;
13641;SDS011;6894;52.196;9.904;2023-04-25T14:05:39;2.70;;;1.70;;
13641;SDS011;6894;52.196;9.904;2023-04-25T14:08:06;3.00;;;1.67;;
13641;SDS011;6894;52.196;9.904;2023-04-25T14:10:35;2.27;;;1.43;;
13641;SDS011;6894;52.196;9.904;2023-04-25T14:13:03;6.90;;;2.73;;
13641;SDS011;6894;52.196;9.904;2023-04-25T14:15:30;4.20;;;2.70;;
13641;SDS011;6894;52.196;9.904;2023-04-25T14:17:57;3.53;;;1.30;;
13641;SDS011;6894;52.196;9.904;2023-04-25T14:20:24;2.27;;;1.70;;
13641;SDS011;6894;52.196;9.904;2023-04-25T14:22:51;3.20;;;1.00;;
13641;SDS011;6894;52.196;9.904;2023-04-25T14:25:19;2.33;;;1.23;;
13641;SDS011;6894;52.196;9.904;2023-04-25T14:27:48;2.63;;;1.43;;
13641;SDS011;6894;52.196;9.904;2023-04-25T14:30:15;3.23;;;2.00;;
13641;SDS011;6894;52.196;9.904;2023-04-25T14:32:42;3.33;;;1.77;;
13641;SDS011;6894;52.196;9.904;2023-04-25T14:35:10;2.87;;;1.20;;
13641;SDS011;6894;52.196;9.904;2023-04-25T14:37:37;5.57;;;2.10;;
13641;SDS011;6894;52.196;9.904;2023-04-25T14:40:04;7.47;;;4.13;;
13641;SDS011;6894;52.196;9.904;2023-04-25T14:42:33;5.23;;;4.47;;
13641;SDS011;6894;52.196;9.904;2023-04-25T14:45:01;6.00;;;4.07;;
13641;SDS011;6894;52.196;9.904;2023-04-25T14:47:28;7.63;;;4.50;;
13641;SDS011;6894;52.196;9.904;2023-04-25T14:49:56;2.50;;;1.27;;
13641;SDS011;6894;52.196;9.904;2023-04-25T14:52:23;4.03;;;1.90;;
13641;SDS011;6894;52.196;9.904;2023-04-25T14:54:50;2.60;;;1.50;;
13641;SDS011;6894;52.196;9.904;2023-04-25T14:57:17;4.97;;;2.30;;